Flight Track Log - Related Links

Times and Time Zones

All times are in EDT time to prevent confusion due to time zone crossing. See the N738LM flight status page for this flight to view local times or setup timezone preferences in your user account.

Time Position Orientation Groundspeed Altitude Reporting Facility
EDT Latitude Longitude Course Direction KTS MPH feet Rate Location/Type
Mon 05:06:02 PM 25.5158 -77.4253 286° West 85 98 6,400  Level Miami Center
Mon 05:07:04 PM 25.5156 -77.4506 269° West 85 98 6,500 97 Climbing Miami Center
Mon 05:08:06 PM 25.5164 -77.4786 272° West 84 97 6,600 145 Climbing Miami Center
Mon 05:09:08 PM 25.5156 -77.5047 268° West 84 97 6,800 97 Climbing Miami Center
Mon 05:10:10 PM 25.5181 -77.5314 276° West 85 98 6,800 48 Level Miami Center
Mon 05:11:00 PM 25.5106 -76.8590 286° West  Level FlightAware Approximate
Mon 05:11:12 PM 25.5244 -77.5581 285° West 84 97 6,900  Level Miami Center
Mon 05:12:14 PM 25.5278 -77.5839 278° West 84 97 6,900 48 Level Miami Center
Mon 05:13:16 PM 25.5314 -77.6122 278° West 88 101 7,000 97 Climbing Miami Center
Mon 05:14:18 PM 25.5358 -77.6411 280° West 88 101 7,100 97 Climbing Miami Center
Mon 05:15:20 PM 25.5411 -77.6675 283° West 88 101 7,200 97 Climbing Miami Center
Mon 05:16:22 PM 25.5472 -77.6931 285° West 87 100 7,300 97 Climbing Miami Center
Mon 05:17:24 PM 25.5539 -77.7197 285° West 86 99 7,400 98 Climbing Miami Center
Mon 05:18:25 PM 25.5597 -77.7461 284° West 85 98 7,500 49 Climbing Miami Center
Mon 05:19:27 PM 25.5656 -77.7722 284° West 85 98 7,500 48 Level Miami Center
Mon 05:20:29 PM 25.5717 -77.8014 283° West 86 99 7,600 48 Climbing Miami Center
Mon 05:21:31 PM 25.5761 -77.8322 279° West 94 108 7,600  Level Miami Center
Mon 05:22:33 PM 25.5819 -77.8614 283° West 97 112 7,600  Level Miami Center
Mon 05:23:35 PM 25.5900 -77.8964 284° West 102 117 7,600 -48 Level Miami Center
Mon 05:24:37 PM 25.6011 -77.9275 292° West 105 121 7,500 -49 Descending Miami Center
Mon 05:25:38 PM 25.6114 -77.9603 289° West 108 124 7,500  Level Miami Center
Mon 05:26:40 PM 25.6211 -77.9908 289° West 103 119 7,500  Level Miami Center
Mon 05:27:42 PM 25.6308 -78.0197 290° West 100 115 7,500  Level Miami Center
Mon 05:28:44 PM 25.6419 -78.0500 292° West 102 117 7,500  Level Miami Center
Mon 05:29:46 PM 25.6536 -78.0803 293° West 103 119 7,500  Level Miami Center
Mon 05:30:48 PM 25.6675 -78.1117 296° West 103 119 7,500  Level Miami Center
Mon 05:31:50 PM 25.6803 -78.1381 298° West 102 117 7,500 -49 Level Miami Center
Mon 05:32:51 PM 25.6889 -78.1694 287° West 102 117 7,400 -49 Descending Miami Center
Mon 05:33:53 PM 25.6944 -78.2058 280° West 106 122 7,400  Level Miami Center
Mon 05:34:55 PM 25.7017 -78.2347 286° West 104 120 7,400 48 Level Miami Center
Mon 05:35:57 PM 25.7092 -78.2644 286° West 102 117 7,500 48 Climbing Miami Center
Mon 05:36:59 PM 25.7200 -78.2914 294° West 100 115 7,500  Level Miami Center
Mon 05:38:01 PM 25.7250 -78.3247 279° West 98 113 7,500  Level Miami Center
Mon 05:39:03 PM 25.7322 -78.3542 285° West 98 113 7,500  Level Miami Center
Mon 05:40:04 PM 25.7397 -78.3836 286° West 98 113 7,500  Level Miami Center
Mon 05:41:06 PM 25.7442 -78.4189 278° West 100 115 7,500  Level Miami Center
Mon 05:42:08 PM 25.7436 -78.4486 269° West 101 116 7,500  Level Miami Center
Mon 05:43:10 PM 25.7378 -78.4803 258° West 101 116 7,500  Level Miami Center
Mon 05:44:12 PM 25.7325 -78.5108 259° West 100 115 7,500  Level Miami Center
Mon 05:45:14 PM 25.7294 -78.5439 264° West 103 119 7,500  Level Miami Center
Mon 05:46:15 PM 25.7306 -78.5744 272° West 102 117 7,500  Level Miami Center
Mon 05:47:17 PM 25.7328 -78.6050 275° West 99 114 7,500  Level Miami Center
Mon 05:48:19 PM 25.7347 -78.6389 274° West 100 115 7,500  Level Miami Center
Mon 05:49:21 PM 25.7333 -78.6697 267° West 100 115 7,500  Level Miami Center
Mon 05:50:23 PM 25.7361 -78.6978 276° West 96 110 7,500  Level Miami Center
Mon 05:51:24 PM 25.7403 -78.7275 279° West 96 110 7,500  Level Miami Center
Mon 05:52:26 PM 25.7431 -78.7614 275° West 97 112 7,500  Level Miami Center
Mon 05:53:28 PM 25.7497 -78.7908 284° West 97 112 7,500  Level Miami Center
Mon 05:54:30 PM 25.7594 -78.8164 293° West 97 112 7,500  Level Miami Center
Mon 05:55:32 PM 25.7714 -78.8464 294° West 97 112 7,500  Level Miami Center
Mon 05:56:33 PM 25.7850 -78.8747 298° West 97 112 7,500  Level Miami Center
Mon 05:57:35 PM 25.7981 -78.9014 299° West 97 112 7,500 48 Level Miami Center
Mon 05:58:37 PM 25.8067 -78.9306 288° West 98 113 7,600 48 Climbing Miami Center
Mon 05:59:39 PM 25.8169 -78.9603 291° West 99 114 7,600  Level Miami Center
Mon 06:00:40 PM 25.8306 -78.9878 299° West 99 114 7,600 -49 Level Miami Center
Mon 06:01:42 PM 25.8419 -79.0164 294° West 99 114 7,500 -48 Descending Miami Center
Mon 06:02:44 PM 25.8533 -79.0450 294° West 101 116 7,500 -48 Level Miami Center
Mon 06:03:46 PM 25.8650 -79.0747 294° West 102 117 7,400 -49 Descending Miami Center
Mon 06:04:47 PM 25.8786 -79.1025 299° West 102 117 7,400 49 Level Miami Center
Mon 06:05:49 PM 25.8939 -79.1350 298° West 101 116 7,500 48 Climbing Miami Center
Mon 06:06:51 PM 25.9078 -79.1614 300° West 101 116 7,500  Level Miami Center
Mon 06:07:52 PM 25.9214 -79.1864 301° West 97 112 7,500 49 Level Miami Center
Mon 06:08:54 PM 25.9408 -79.2069 316° Northwest 95 109 7,600 48 Climbing Miami Center
Mon 06:09:56 PM 25.9581 -79.2269 314° West 95 109 7,600  Level Miami Center
Mon 06:10:57 PM 25.9764 -79.2489 313° West 95 109 7,600  Level Miami Center
Mon 06:11:59 PM 25.9919 -79.2756 303° West 101 116 7,600 -48 Level Miami Center
Mon 06:13:01 PM 26.0122 -79.3053 307° West 101 116 7,500 -49 Descending Miami Center
Mon 06:14:02 PM 26.0292 -79.3300 307° West 102 117 7,500  Level Miami Center
Mon 06:15:04 PM 26.0444 -79.3561 303° West 102 117 7,500 -49 Level Miami Center
Mon 06:16:05 PM 26.0600 -79.3825 303° West 101 116 7,400  Descending Miami Center
Mon 06:17:07 PM 26.0744 -79.4089 301° West 101 116 7,500 119 Climbing Miami Center
Mon 06:17:46 PM 26.0758 -79.4331 274° West 102 117 7,600 98 Climbing Miami Center
Mon 06:18:08 PM 26.0764 -79.4428 274° West 101 116 7,600 -122 Level Miami Center
Mon 06:18:35 PM 26.0742 -79.4586 261° West 102 117 7,500 -97 Descending Miami Center
Mon 06:19:10 PM 26.0733 -79.4719 266° West 105 121 7,500  Level Miami Center
Mon 06:19:36 PM 26.0703 -79.4908 260° West 103 119 7,500  Level Miami Center
Mon 06:20:11 PM 26.0683 -79.5022 259° West 102 117 7,500  Level Miami Center
Mon 06:20:37 PM 26.0667 -79.5206 264° West 100 115 7,500 -97 Level Miami Center
Mon 06:21:13 PM 26.0669 -79.5389 271° West 102 117 7,400 -98 Descending Miami Center
Mon 06:21:38 PM 26.0667 -79.5531 269° West 102 117 7,400  Level Miami Center
Mon 06:22:14 PM 26.0675 -79.5708 273° West 102 117 7,400 -98 Level Miami Center
Mon 06:22:39 PM 26.0669 -79.5856 268° West 101 116 7,300 -97 Descending Miami Center
Mon 06:23:16 PM 26.0672 -79.6022 271° West 102 117 7,300  Level Miami Center
Mon 06:23:39 PM 26.0672 -79.6181 270° West 102 117 7,300  Level Miami Center
Mon 06:24:17 PM 26.0686 -79.6325 276° West 102 117 7,300  Level Miami Center
Mon 06:24:40 PM 26.0675 -79.6481 265° West 101 116 7,300  Level Miami Center
Mon 06:25:19 PM 26.0681 -79.6628 272° West 101 116 7,300  Level Miami Center
Mon 06:25:35 PM 26.0700 -79.6761 279° West 99 114 7,300  Level Miami Center
Mon 06:26:20 PM 26.0717 -79.6950 276° West 103 119 7,300  Level Miami Center
Mon 06:26:36 PM 26.0725 -79.7064 275° West 100 115 7,300 -98 Level Miami Center
Mon 06:27:21 PM 26.0728 -79.7250 271° West 102 117 7,200  Descending Miami Center
Mon 06:27:37 PM 26.0728 -79.7367 270° West 101 116 7,300 97 Climbing Miami Center
Mon 06:28:23 PM 26.0728 -79.7550 270° West 100 115 7,300  Level Miami Center
Mon 06:28:38 PM 26.0728 -79.7692 270° West 100 115 7,300 -197 Level Miami Center
Mon 06:29:24 PM 26.0736 -79.7936 272° West 104 120 7,100 -300 Descending Miami Center
Mon 06:29:38 PM 26.0728 -79.8039 265° West 107 123 7,000 -290 Descending Miami Center
Mon 06:30:26 PM 26.0742 -79.8281 274° West 109 125 6,800 -194 Descending Miami Center
Mon 06:30:40 PM 26.0731 -79.8386 263° West 112 129 6,800 -492 Level Miami Center
Mon 06:31:27 PM 26.0842 -79.8581 302° West 110 127 6,300 -661 Descending Miami Center
Mon 06:32:29 PM 26.1069 -79.8847 314° West 116 133 5,600 -741 Descending Miami Center
Mon 06:32:48 PM 26.1156 -79.8975 307° West 119 137 5,300 -590 Descending Miami Center
Mon 06:33:30 PM 26.1172 -79.9183 275° West 118 136 5,000 -400 Descending Miami Center
Mon 06:33:48 PM 26.1239 -79.9306 301° West 114 131 4,900 -484 Descending Miami Center
Mon 06:34:32 PM 26.1325 -79.9486 298° West 115 132 4,500 -545 Descending Miami Center
Mon 06:34:43 PM 26.1389 -79.9594 303° West 115 132 4,400 -590 Descending Miami Center
Mon 06:35:33 PM 26.1497 -79.9783 303° West 115 132 3,900 -689 Descending Miami Center
Mon 06:35:44 PM 26.1558 -79.9911 298° West 117 135 3,700 -1,083 Descending Miami Center
Mon 06:36:45 PM 26.1769 -80.0228 307° West 133 153 2,600 -1,082 Descending Miami Center
Mon 06:37:46 PM 26.2044 -80.0528 316° Northwest 140 161 1,500 -764 Descending Miami Center
Mon 06:38:35 PM 26.2239 -80.0750 314° West 120 138 1,200 -212 Descending Miami Center
Mon 06:39:39 PM 26.2394 -80.0983 307° West 99 114 1,100 96 Descending Miami Center
Mon 06:40:40 PM 26.2311 -80.1239 250° West 89 102 1,400 98 Climbing Miami Center
Mon 06:41:42 PM 26.2311 -80.1569 270° West 105 121 1,300 -293 Descending Miami Center
Mon 06:42:43 PM 26.2369 -80.1906 281° West 107 123 800 -293 Descending Miami Center
Mon 06:43:45 PM 26.2339 -80.2197 263° West 89 102 700 -49 Descending Miami Center
Mon 06:44:46 PM 26.2167 -80.2133 162° South 80 92 700 98 Level Miami Center
Mon 06:45:48 PM 26.1983 -80.2186 194° South 75 86 900 -98 Climbing Miami Center
Mon 06:46:49 PM 26.1961 -80.1969 97° East 79 91 500 -390 Descending Miami Center
Mon 06:47:51 PM 26.1989 -80.1747 82° East 78 90 100 -387 Descending Miami Center

Login

Don't have an account? Register now (free) for customized features, flight alerts, and more!